Time;durP1;ratioP1;P1;durP2;ratioP2;P2;SDS_P1;SDS_P2;PMS_P1;PMS_P2;Temp;Humidity;BMP_temperature;BMP_pressure;BME280_temperature;BME280_humidity;BME280_pressure;Samples;Min_cycle;Max_cycle;Signal;HPM_P1;HPM_P2
2023/07/20 00:06:27;;;;;;;6.93;3.12;;;15.90;99.90;;;;;;5826147;30;20100;-75
2023/07/20 00:10:29;;;;;;;4.53;2.70;;;15.80;99.90;;;;;;7280866;32;20101;-74
2023/07/20 00:14:32;;;;;;;6.35;3.20;;;15.70;99.90;;;;;;7271202;32;20182;-75
2023/07/20 00:18:33;;;;;;;8.50;3.30;;;15.70;99.90;;;;;;7267322;32;20520;-75
2023/07/20 00:22:35;;;;;;;4.05;2.55;;;15.70;99.90;;;;;;7281056;32;20112;-75
2023/07/20 00:26:37;;;;;;;4.93;2.58;;;15.70;99.90;;;;;;7281482;32;20109;-75
2023/07/20 00:30:39;;;;;;;5.62;3.10;;;15.70;99.90;;;;;;7260522;32;20454;-75
2023/07/20 00:34:41;;;;;;;6.47;2.90;;;15.70;99.90;;;;;;7268375;32;20104;-75
2023/07/20 00:38:43;;;;;;;5.15;2.92;;;15.80;99.90;;;;;;7280053;32;20464;-75
2023/07/20 00:42:45;;;;;;;4.37;2.53;;;15.70;99.90;;;;;;7284654;32;20100;-75
2023/07/20 00:46:47;;;;;;;7.50;3.00;;;15.60;99.90;;;;;;7272717;32;20104;-75
2023/07/20 00:50:50;;;;;;;5.90;2.70;;;15.50;99.90;;;;;;7270335;32;20116;-75
2023/07/20 00:54:56;;;;;;;5.15;2.28;;;15.50;99.90;;;;;;7270697;32;20138;-75
2023/07/20 00:58:58;;;;;;;6.40;3.00;;;15.40;99.90;;;;;;7284495;32;20097;-75
2023/07/20 01:02:59;;;;;;;5.97;2.80;;;15.30;99.90;;;;;;7270047;32;20108;-75
2023/07/20 01:07:32;;;;;;;3.33;2.75;;;15.40;99.90;;;;;;7284117;32;20528;-75
2023/07/20 01:11:40;;;;;;;11.23;2.90;;;15.30;99.90;;;;;;7280852;32;20134;-75
2023/07/20 01:15:42;;;;;;;5.80;2.72;;;15.40;99.90;;;;;;7283340;32;20138;-75
2023/07/20 01:19:44;;;;;;;5.82;2.87;;;15.40;99.90;;;;;;7283704;32;20123;-75
2023/07/20 01:24:10;;;;;;;8.85;4.37;;;15.50;99.90;;;;;;7283311;32;20532;-76
2023/07/20 01:28:15;;;;;;;9.20;5.20;;;15.70;99.90;;;;;;7277567;32;20483;-76
2023/07/20 01:32:18;;;;;;;7.03;4.37;;;15.80;99.90;;;;;;7276983;32;20129;-76
2023/07/20 01:36:23;;;;;;;8.27;4.43;;;15.90;99.90;;;;;;7283302;32;20198;-76
2023/07/20 01:40:25;;;;;;;6.32;3.97;;;16.00;99.90;;;;;;7284520;32;20623;-76
2023/07/20 01:44:29;;;;;;;8.00;4.37;;;16.10;99.90;;;;;;7269457;32;20101;-76
2023/07/20 01:48:31;;;;;;;8.68;4.22;;;16.10;99.90;;;;;;7269362;32;20279;-75
2023/07/20 01:52:33;;;;;;;6.78;4.25;;;16.10;99.90;;;;;;7282731;32;20163;-77
2023/07/20 01:56:34;;;;;;;6.00;3.67;;;16.10;99.90;;;;;;7269146;32;20158;-76
2023/07/20 02:00:39;;;;;;;8.18;4.20;;;16.00;99.90;;;;;;7280528;32;20446;-77
2023/07/20 02:04:41;;;;;;;7.95;4.18;;;16.00;99.90;;;;;;7282038;32;20282;-76
2023/07/20 02:08:43;;;;;;;6.70;4.18;;;16.10;99.90;;;;;;7282501;32;20104;-76
2023/07/20 02:12:45;;;;;;;7.05;3.72;;;16.10;99.90;;;;;;7282630;32;20112;-76
2023/07/20 02:16:46;;;;;;;5.37;3.60;;;16.10;99.90;;;;;;7266365;32;20108;-75
2023/07/20 02:20:48;;;;;;;4.78;3.70;;;16.10;99.90;;;;;;7281366;32;20454;-76
2023/07/20 02:24:50;;;;;;;7.03;4.47;;;16.00;99.90;;;;;;7294179;26;20246;-55
2023/07/20 02:28:52;;;;;;;5.35;4.03;;;16.00;99.90;;;;;;7296974;32;20139;-56
2023/07/20 02:32:53;;;;;;;6.45;3.90;;;16.00;99.90;;;;;;7280501;32;20158;-55
2023/07/20 02:37:00;;;;;;;8.05;4.05;;;16.00;99.90;;;;;;7281977;32;20143;-55
2023/07/20 02:41:02;;;;;;;7.40;3.85;;;16.00;99.90;;;;;;7280314;32;20169;-55
2023/07/20 02:45:05;;;;;;;6.72;3.78;;;15.90;99.90;;;;;;7285363;32;20108;-55
2023/07/20 02:49:07;;;;;;;5.57;3.60;;;15.80;99.90;;;;;;7292591;32;20108;-56
2023/07/20 02:53:08;;;;;;;8.02;4.25;;;15.90;99.90;;;;;;7280178;32;20113;-55
2023/07/20 02:57:10;;;;;;;7.45;4.28;;;15.90;99.90;;;;;;7279568;32;20658;-56
2023/07/20 03:01:12;;;;;;;8.73;3.87;;;15.90;99.90;;;;;;7276005;32;20257;-55
2023/07/20 03:05:14;;;;;;;6.40;3.87;;;15.90;99.90;;;;;;7292216;32;20175;-56
2023/07/20 03:09:16;;;;;;;5.53;3.53;;;15.70;99.90;;;;;;7279281;32;20536;-56
2023/07/20 03:13:18;;;;;;;10.30;4.37;;;15.70;99.90;;;;;;7286630;32;20139;-55
2023/07/20 03:17:20;;;;;;;8.23;3.58;;;15.70;99.90;;;;;;7286218;32;20253;-56
2023/07/20 03:21:22;;;;;;;6.22;3.72;;;15.80;99.90;;;;;;7283103;32;20229;-56
2023/07/20 03:25:24;;;;;;;7.47;4.25;;;15.80;99.90;;;;;;7278790;32;20143;-56
2023/07/20 03:29:31;;;;;;;5.43;3.95;;;15.80;99.90;;;;;;7285605;32;23026;-56
2023/07/20 03:33:33;;;;;;;8.18;4.37;;;15.80;99.90;;;;;;7285562;32;20198;-56
2023/07/20 03:37:36;;;;;;;8.35;4.15;;;15.80;99.90;;;;;;7288312;32;20104;-56
2023/07/20 03:41:38;;;;;;;7.87;4.18;;;15.90;99.90;;;;;;7285638;32;20535;-56
2023/07/20 03:45:40;;;;;;;6.05;3.95;;;15.90;99.90;;;;;;7279018;32;20127;-56
2023/07/20 03:49:41;;;;;;;11.40;4.72;;;15.90;99.90;;;;;;7280468;32;20104;-55
2023/07/20 03:53:43;;;;;;;6.62;4.28;;;16.00;99.90;;;;;;7291964;32;20134;-56
2023/07/20 03:57:45;;;;;;;6.07;4.15;;;15.90;99.90;;;;;;7283710;32;20134;-56
2023/07/20 04:01:47;;;;;;;6.40;4.62;;;15.90;99.90;;;;;;7282757;32;20490;-56
2023/07/20 04:05:48;;;;;;;5.93;4.40;;;15.90;99.90;;;;;;7287200;32;20121;-56
2023/07/20 04:09:50;;;;;;;6.95;5.03;;;15.90;99.90;;;;;;7289323;32;20124;-55
2023/07/20 04:13:52;;;;;;;7.12;4.47;;;16.00;99.90;;;;;;7283275;32;20191;-56
2023/07/20 04:17:56;;;;;;;9.38;5.25;;;16.00;99.90;;;;;;7285605;32;20112;-55
2023/07/20 04:21:58;;;;;;;14.95;7.12;;;16.00;99.90;;;;;;7284380;32;20495;-56
2023/07/20 04:25:59;;;;;;;10.65;6.97;;;16.10;99.90;;;;;;7289575;32;20535;-56
2023/07/20 04:30:02;;;;;;;12.68;7.07;;;16.00;99.90;;;;;;7301162;32;20632;-56
2023/07/20 04:34:04;;;;;;;14.68;7.30;;;16.00;99.90;;;;;;7296320;32;20137;-55
2023/07/20 04:38:05;;;;;;;11.02;7.37;;;16.00;99.90;;;;;;7288464;32;20108;-55
2023/07/20 04:42:08;;;;;;;11.27;7.80;;;16.00;99.90;;;;;;7283527;32;20115;-55
2023/07/20 04:46:12;;;;;;;11.65;7.93;;;16.00;99.90;;;;;;7294284;32;20557;-55
2023/07/20 04:50:13;;;;;;;11.18;7.37;;;16.00;99.90;;;;;;7301636;32;20112;-57
2023/07/20 04:54:17;;;;;;;13.43;9.60;;;15.90;99.90;;;;;;7282311;32;20184;-57
2023/07/20 04:58:20;;;;;;;13.93;9.55;;;16.00;99.90;;;;;;7283085;32;20130;-56
2023/07/20 05:02:22;;;;;;;13.62;10.07;;;16.10;99.90;;;;;;7289170;32;20532;-56
2023/07/20 05:06:23;;;;;;;15.30;10.43;;;16.20;99.90;;;;;;7279915;32;20105;-56
2023/07/20 05:10:25;;;;;;;14.05;10.18;;;16.20;99.90;;;;;;7281431;32;20523;-56
2023/07/20 05:14:27;;;;;;;17.40;10.23;;;16.20;99.90;;;;;;7289451;32;20120;-57
2023/07/20 05:18:29;;;;;;;13.13;10.18;;;16.20;99.90;;;;;;7283195;32;20223;-56
2023/07/20 05:22:31;;;;;;;18.40;13.02;;;16.20;99.90;;;;;;7285034;32;20167;-56
2023/07/20 05:26:33;;;;;;;15.00;11.80;;;16.20;99.90;;;;;;7285225;32;20227;-56
2023/07/20 05:30:35;;;;;;;17.48;14.85;;;16.30;99.90;;;;;;7290071;32;20282;-56
2023/07/20 05:34:36;;;;;;;20.88;13.75;;;16.30;99.90;;;;;;7293039;32;20127;-56
2023/07/20 05:38:38;;;;;;;20.55;16.02;;;16.40;99.90;;;;;;7284889;32;20179;-56
2023/07/20 05:42:40;;;;;;;24.37;17.58;;;16.40;99.90;;;;;;7285139;32;20108;-56
2023/07/20 05:46:42;;;;;;;21.60;17.08;;;16.50;99.90;;;;;;7291034;32;20505;-56
2023/07/20 05:50:58;;;;;;;20.20;17.37;;;16.80;99.90;;;;;;7294016;32;20108;-56
2023/07/20 05:54:59;;;;;;;19.52;15.13;;;16.90;99.90;;;;;;7294135;32;20119;-56
2023/07/20 05:59:02;;;;;;;19.05;17.15;;;17.10;99.90;;;;;;7294485;32;20613;-56
2023/07/20 06:03:03;;;;;;;19.08;15.32;;;17.00;99.90;;;;;;7291595;32;20108;-56
2023/07/20 06:07:07;;;;;;;17.02;15.30;;;17.00;99.90;;;;;;7297155;32;20112;-56
2023/07/20 06:11:10;;;;;;;17.98;15.80;;;16.80;99.90;;;;;;7294865;32;20111;-56
2023/07/20 06:15:26;;;;;;;19.65;17.12;;;16.80;99.90;;;;;;7287406;32;20526;-56
2023/07/20 06:19:28;;;;;;;17.65;15.73;;;16.60;99.90;;;;;;7296763;32;20120;-58
2023/07/20 06:23:29;;;;;;;18.48;14.60;;;16.50;99.90;;;;;;7285693;32;20131;-56
2023/07/20 06:27:31;;;;;;;17.33;14.05;;;16.50;99.90;;;;;;7284528;32;20283;-56
2023/07/20 06:31:34;;;;;;;13.05;11.77;;;16.60;99.90;;;;;;7287545;32;20844;-57
2023/07/20 06:35:36;;;;;;;19.83;17.70;;;16.60;99.90;;;;;;7284865;32;20565;-56
2023/07/20 06:39:37;;;;;;;19.58;17.58;;;16.90;99.90;;;;;;7289146;32;20180;-57
2023/07/20 06:43:42;;;;;;;19.50;17.50;;;17.80;99.90;;;;;;7282068;32;20422;-56
2023/07/20 06:47:47;;;;;;;17.05;15.25;;;18.70;99.90;;;;;;7285260;32;20116;-57
2023/07/20 06:51:48;;;;;;;15.25;12.70;;;19.90;99.90;;;;;;7281423;32;20119;-56
2023/07/20 06:55:50;;;;;;;14.52;12.20;;;20.50;99.90;;;;;;7288144;32;20483;-56
2023/07/20 06:59:53;;;;;;;13.05;11.60;;;20.80;99.90;;;;;;7280630;32;20108;-57
2023/07/20 07:03:55;;;;;;;10.35;9.30;;;20.50;99.90;;;;;;7287624;32;20400;-57
2023/07/20 07:07:57;;;;;;;10.63;9.27;;;20.70;99.90;;;;;;7280130;32;20135;-57
2023/07/20 07:11:59;;;;;;;10.10;8.93;;;21.00;99.90;;;;;;7284485;32;20135;-57
2023/07/20 07:16:01;;;;;;;9.07;8.27;;;21.30;99.90;;;;;;7284091;32;20115;-57
2023/07/20 07:20:03;;;;;;;8.50;7.10;;;20.70;99.90;;;;;;7285247;32;20199;-57
2023/07/20 07:24:07;;;;;;;8.93;8.05;;;20.40;99.90;;;;;;7295167;32;20104;-57
2023/07/20 07:28:09;;;;;;;8.00;6.12;;;20.90;99.90;;;;;;7284119;32;20120;-57
2023/07/20 07:32:11;;;;;;;6.68;5.50;;;21.60;99.90;;;;;;7288675;32;20789;-57
2023/07/20 07:36:12;;;;;;;6.00;5.40;;;21.30;99.90;;;;;;7289651;32;20237;-57
2023/07/20 07:40:15;;;;;;;8.45;5.62;;;21.40;99.90;;;;;;7291774;32;20099;-57
2023/07/20 07:44:17;;;;;;;6.07;5.20;;;21.00;99.90;;;;;;7292221;32;20116;-57
2023/07/20 07:48:21;;;;;;;8.65;6.10;;;20.10;99.90;;;;;;7295490;32;20112;-57
2023/07/20 07:52:23;;;;;;;6.43;5.37;;;19.70;99.90;;;;;;7279068;32;20199;-57
2023/07/20 07:56:24;;;;;;;5.95;4.97;;;19.30;99.90;;;;;;7283109;32;20575;-58
2023/07/20 08:00:26;;;;;;;5.75;5.20;;;19.10;99.90;;;;;;7286260;32;20100;-57
2023/07/20 08:04:28;;;;;;;7.85;5.30;;;18.80;99.90;;;;;;7290079;32;20563;-57
2023/07/20 08:08:32;;;;;;;6.82;5.97;;;18.90;99.90;;;;;;7284292;32;20170;-57
2023/07/20 08:12:34;;;;;;;10.80;7.10;;;19.00;99.90;;;;;;7269688;32;20501;-57
2023/07/20 08:16:35;;;;;;;7.97;6.95;;;19.30;99.90;;;;;;7288334;32;20131;-58
2023/07/20 08:20:37;;;;;;;8.25;7.40;;;19.40;99.90;;;;;;7290509;32;20169;-57
2023/07/20 08:24:40;;;;;;;12.57;11.02;;;19.50;99.90;;;;;;7283120;32;20132;-57
2023/07/20 08:28:45;;;;;;;11.93;10.82;;;20.10;99.90;;;;;;7284659;32;20126;-57
2023/07/20 08:32:47;;;;;;;11.38;10.20;;;20.60;99.90;;;;;;7264009;32;20108;-57
2023/07/20 08:36:49;;;;;;;10.85;9.77;;;21.40;99.90;;;;;;7284429;32;20174;-57
2023/07/20 08:40:54;;;;;;;10.30;9.10;;;21.90;99.90;;;;;;7270399;32;20124;-57
2023/07/20 08:44:57;;;;;;;7.85;7.05;;;22.30;99.90;;;;;;7281108;32;20529;-58
2023/07/20 08:48:59;;;;;;;6.40;5.60;;;22.00;99.90;;;;;;7280693;32;20186;-57
2023/07/20 08:53:02;;;;;;;5.43;3.50;;;21.00;99.90;;;;;;7281429;32;20485;-57
2023/07/20 08:57:05;;;;;;;6.75;4.97;;;21.20;99.90;;;;;;7283491;32;20171;-57
2023/07/20 09:01:07;;;;;;;4.28;3.60;;;22.10;99.90;;;;;;7291325;32;20162;-57
2023/07/20 09:05:14;;;;;;;2.12;1.48;;;21.60;99.90;;;;;;7288581;32;20240;-57
2023/07/20 09:09:16;;;;;;;3.47;2.03;;;21.60;99.90;;;;;;7294368;32;20115;-57
2023/07/20 09:13:18;;;;;;;4.82;1.60;;;21.10;99.90;;;;;;7288646;32;20234;-57
2023/07/20 09:17:25;;;;;;;2.05;1.35;;;21.00;99.90;;;;;;7287922;32;20116;-57
2023/07/20 09:21:30;;;;;;;3.45;1.40;;;21.90;99.90;;;;;;7294313;32;20130;-57
2023/07/20 09:25:32;;;;;;;2.92;1.10;;;21.60;99.90;;;;;;7290201;32;20111;-57
2023/07/20 09:29:34;;;;;;;2.12;1.10;;;22.80;99.90;;;;;;7285942;32;20117;-57
2023/07/20 09:33:39;;;;;;;4.75;1.55;;;23.30;99.90;;;;;;7281476;32;20183;-57
2023/07/20 09:38:01;;;;;;;1.30;1.10;;;23.40;99.90;;;;;;7290727;32;20132;-57
2023/07/20 09:42:07;;;;;;;1.62;1.10;;;24.60;99.90;;;;;;7291704;32;20107;-57
2023/07/20 09:46:13;;;;;;;5.32;1.58;;;24.90;99.90;;;;;;7282130;32;20116;-57
2023/07/20 09:50:42;;;;;;;3.12;1.08;;;23.50;99.90;;;;;;7287756;32;20123;-58
2023/07/20 09:54:46;;;;;;;2.22;1.45;;;22.80;99.90;;;;;;7288594;32;20112;-57
2023/07/20 09:58:48;;;;;;;1.25;1.08;;;23.10;99.90;;;;;;7291753;32;20227;-57
2023/07/20 10:02:52;;;;;;;1.80;1.15;;;24.20;99.90;;;;;;7285906;32;20889;-57
2023/07/20 10:06:56;;;;;;;1.45;1.00;;;24.90;99.90;;;;;;7285528;32;20104;-57
2023/07/20 10:11:00;;;;;;;2.78;0.95;;;24.30;99.90;;;;;;7294623;32;20116;-58
2023/07/20 10:15:24;;;;;;;1.42;1.17;;;23.70;99.90;;;;;;7292060;32;20112;-58
2023/07/20 10:19:46;;;;;;;3.50;1.20;;;23.10;99.90;;;;;;7284087;32;20151;-57
2023/07/20 10:23:54;;;;;;;1.27;0.90;;;22.30;99.90;;;;;;7286917;32;20105;-57
2023/07/20 10:27:57;;;;;;;2.10;1.00;;;22.70;99.90;;;;;;7285483;32;20157;-57
2023/07/20 10:32:00;;;;;;;3.67;0.70;;;22.20;99.90;;;;;;7289405;32;20111;-57
2023/07/20 10:36:05;;;;;;;0.85;0.70;;;21.80;99.90;;;;;;7286793;32;20108;-57
2023/07/20 10:40:38;;;;;;;1.65;0.65;;;21.90;99.90;;;;;;7283940;32;20165;-57
2023/07/20 10:44:40;;;;;;;2.33;0.98;;;23.50;99.90;;;;;;7285399;32;20608;-57
2023/07/20 10:49:02;;;;;;;1.35;0.80;;;24.30;99.90;;;;;;7280572;32;20174;-57
2023/07/20 10:53:17;;;;;;;2.03;1.20;;;24.30;99.90;;;;;;7273690;32;20158;-57
2023/07/20 10:57:30;;;;;;;2.25;1.20;;;23.70;99.90;;;;;;7281102;32;20181;-57
2023/07/20 11:01:37;;;;;;;2.15;1.05;;;23.50;99.90;;;;;;7289798;32;20111;-57
2023/07/20 11:05:40;;;;;;;1.80;0.87;;;23.20;99.90;;;;;;7285411;32;20124;-57
2023/07/20 11:09:42;;;;;;;1.48;0.90;;;22.90;99.90;;;;;;7292834;32;20318;-57
2023/07/20 11:13:59;;;;;;;2.80;0.98;;;23.20;99.90;;;;;;7281387;32;20117;-58
2023/07/20 11:18:12;;;;;;;1.77;0.68;;;22.50;99.90;;;;;;7282252;32;20586;-58
2023/07/20 11:22:17;;;;;;;1.75;0.90;;;23.20;99.90;;;;;;7269072;32;20225;-57
2023/07/20 11:26:19;;;;;;;1.08;0.65;;;23.00;99.90;;;;;;7279300;32;20120;-57
2023/07/20 11:30:21;;;;;;;1.08;0.62;;;22.40;99.90;;;;;;7292874;32;20610;-57
2023/07/20 11:34:23;;;;;;;2.12;0.85;;;22.50;99.90;;;;;;7291171;32;20558;-57
2023/07/20 11:38:25;;;;;;;4.87;0.90;;;22.80;99.90;;;;;;7285787;32;20100;-57
2023/07/20 11:42:27;;;;;;;1.52;0.60;;;23.20;99.90;;;;;;7286140;32;20209;-57
2023/07/20 11:46:32;;;;;;;2.47;0.60;;;23.40;99.90;;;;;;7278594;32;20138;-57
2023/07/20 11:50:39;;;;;;;1.30;0.50;;;23.20;99.90;;;;;;7269288;32;20134;-57
2023/07/20 11:54:42;;;;;;;2.15;0.80;;;23.90;97.60;;;;;;7278919;32;20193;-57
2023/07/20 11:58:49;;;;;;;1.20;0.68;;;24.50;98.20;;;;;;7283238;32;20134;-57
2023/07/20 12:02:53;;;;;;;2.30;0.73;;;24.40;97.20;;;;;;7287661;32;20275;-57
2023/07/20 12:06:55;;;;;;;2.80;0.80;;;24.30;98.50;;;;;;7282841;32;20182;-58
2023/07/20 12:10:57;;;;;;;1.73;0.62;;;23.60;98.70;;;;;;7280418;32;20183;-57
2023/07/20 12:15:17;;;;;;;1.55;0.50;;;23.10;98.20;;;;;;7283948;32;20517;-58
2023/07/20 12:19:19;;;;;;;1.12;0.52;;;22.80;99.90;;;;;;7288752;32;20177;-59
2023/07/20 12:23:21;;;;;;;0.85;0.57;;;22.70;99.90;;;;;;7287137;32;20183;-57
2023/07/20 12:27:27;;;;;;;1.05;0.40;;;22.90;99.70;;;;;;7288424;32;20116;-57
2023/07/20 12:31:30;;;;;;;0.95;0.40;;;22.80;99.90;;;;;;7282313;32;20632;-57
2023/07/20 12:35:32;;;;;;;1.17;0.50;;;23.20;99.90;;;;;;7290291;32;20108;-58
2023/07/20 12:39:34;;;;;;;1.30;0.45;;;23.90;99.90;;;;;;7286911;32;20139;-57
2023/07/20 12:43:36;;;;;;;1.00;0.50;;;24.20;98.40;;;;;;7284595;32;20207;-57
2023/07/20 12:47:37;;;;;;;1.05;0.40;;;24.30;96.30;;;;;;7292201;32;20522;-56
2023/07/20 12:51:39;;;;;;;1.12;0.50;;;24.90;96.80;;;;;;7288624;32;20138;-57
2023/07/20 12:55:41;;;;;;;1.90;0.68;;;25.00;94.40;;;;;;7293060;32;20126;-56
2023/07/20 12:59:42;;;;;;;1.02;0.50;;;24.20;96.20;;;;;;7283519;32;20151;-56
2023/07/20 13:03:45;;;;;;;2.45;0.50;;;23.70;97.90;;;;;;7286873;32;20242;-56
2023/07/20 13:07:50;;;;;;;2.40;0.70;;;23.10;97.60;;;;;;7294585;32;20130;-56
2023/07/20 13:11:56;;;;;;;2.28;0.77;;;22.50;99.30;;;;;;7286092;32;20270;-56
2023/07/20 13:15:58;;;;;;;2.40;0.93;;;22.30;99.90;;;;;;7283832;32;20100;-57
2023/07/20 13:20:00;;;;;;;3.00;0.88;;;22.00;99.90;;;;;;7283654;32;20494;-57
2023/07/20 13:24:03;;;;;;;3.75;1.00;;;22.00;99.90;;;;;;7288594;32;20188;-56
2023/07/20 13:28:05;;;;;;;1.35;0.60;;;22.20;99.90;;;;;;7288897;32;20170;-56
2023/07/20 13:32:08;;;;;;;1.67;0.80;;;22.00;99.90;;;;;;7287615;32;20134;-56
2023/07/20 13:36:09;;;;;;;1.10;0.47;;;22.10;99.90;;;;;;7280833;32;20126;-57
2023/07/20 13:40:14;;;;;;;2.55;0.50;;;22.10;99.90;;;;;;7286100;32;20199;-57
2023/07/20 13:44:16;;;;;;;1.58;0.73;;;21.80;99.90;;;;;;7294274;32;20112;-56
2023/07/20 13:48:23;;;;;;;;;;;21.90;99.90;;;;;;7282785;32;20181;-56
2023/07/20 13:52:28;;;;;;;1.55;0.68;;;22.00;99.90;;;;;;7289431;32;20014;-56
2023/07/20 13:56:33;;;;;;;2.25;0.60;;;22.30;99.90;;;;;;7291371;32;20619;-56
2023/07/20 14:00:35;;;;;;;0.93;0.50;;;22.50;99.90;;;;;;7289428;32;20199;-57
2023/07/20 14:04:37;;;;;;;1.05;0.50;;;22.70;99.90;;;;;;7293286;32;20124;-56
2023/07/20 14:08:39;;;;;;;3.25;0.80;;;22.70;99.20;;;;;;7288091;32;20113;-56
2023/07/20 14:12:41;;;;;;;2.60;0.50;;;22.70;99.30;;;;;;7287310;32;20186;-57
2023/07/20 14:16:42;;;;;;;2.92;0.70;;;22.50;99.90;;;;;;7286498;32;20148;-56
2023/07/20 14:20:44;;;;;;;1.83;0.70;;;22.60;99.90;;;;;;7289792;32;20112;-57
2023/07/20 14:24:46;;;;;;;4.00;0.75;;;22.70;99.90;;;;;;7284424;32;20469;-57
2023/07/20 14:28:48;;;;;;;4.00;0.80;;;22.50;99.90;;;;;;7288256;32;20592;-57
2023/07/20 14:32:49;;;;;;;1.95;0.70;;;22.60;99.90;;;;;;7283870;32;20464;-57
2023/07/20 14:36:51;;;;;;;1.05;0.62;;;22.70;99.90;;;;;;7279841;32;20150;-57
2023/07/20 14:40:54;;;;;;;0.85;0.50;;;22.80;99.10;;;;;;7287095;32;20526;-57
2023/07/20 14:44:56;;;;;;;1.20;0.52;;;23.20;99.90;;;;;;7280297;32;20104;-57
2023/07/20 14:48:58;;;;;;;4.12;0.60;;;23.10;99.50;;;;;;7286166;32;20774;-57
2023/07/20 14:53:00;;;;;;;1.80;0.40;;;23.30;97.70;;;;;;7284987;32;20108;-56
2023/07/20 14:57:13;;;;;;;2.20;0.40;;;23.10;97.20;;;;;;7272372;32;20170;-57
2023/07/20 15:01:15;;;;;;;1.95;0.60;;;23.20;97.80;;;;;;7288631;32;20214;-57
2023/07/20 15:05:22;;;;;;;2.25;0.40;;;23.50;95.20;;;;;;7292004;32;20353;-57
2023/07/20 15:09:24;;;;;;;2.37;0.60;;;23.90;96.70;;;;;;7294638;32;20162;-57
2023/07/20 15:13:25;;;;;;;3.58;0.70;;;23.90;94.00;;;;;;7292354;32;20254;-57
2023/07/20 15:17:27;;;;;;;1.20;0.35;;;23.60;94.10;;;;;;7289491;32;20134;-57
2023/07/20 15:21:30;;;;;;;2.67;0.60;;;24.10;92.90;;;;;;7283280;32;20130;-57
2023/07/20 15:25:32;;;;;;;1.80;0.50;;;23.80;91.50;;;;;;7290925;32;20553;-57
2023/07/20 15:29:33;;;;;;;0.90;0.50;;;23.40;94.70;;;;;;7283876;32;20173;-57
2023/07/20 15:33:37;;;;;;;1.70;0.40;;;23.70;95.10;;;;;;7288825;32;20104;-56
2023/07/20 15:37:38;;;;;;;1.05;0.43;;;23.80;93.60;;;;;;7292297;32;20434;-57
2023/07/20 15:41:40;;;;;;;1.45;0.70;;;23.80;93.30;;;;;;7282726;32;20115;-57
2023/07/20 15:45:50;;;;;;;1.37;0.57;;;23.60;91.90;;;;;;7286836;32;20166;-56
2023/07/20 15:49:53;;;;;;;2.17;0.75;;;23.10;95.10;;;;;;7282557;32;20252;-57
2023/07/20 15:53:54;;;;;;;2.15;0.80;;;23.10;95.00;;;;;;7289117;32;20174;-57
2023/07/20 15:57:58;;;;;;;1.35;0.68;;;22.90;94.10;;;;;;7285902;32;20107;-57
2023/07/20 16:02:00;;;;;;;5.18;0.90;;;22.50;95.70;;;;;;7285156;32;20112;-56
2023/07/20 16:06:03;;;;;;;2.15;1.10;;;22.50;96.60;;;;;;7279092;32;20108;-57
2023/07/20 16:10:09;;;;;;;0.80;0.60;;;22.50;97.00;;;;;;7285059;32;20101;-57
2023/07/20 16:14:11;;;;;;;3.35;0.70;;;22.60;96.00;;;;;;7297766;32;20508;-57
2023/07/20 16:18:12;;;;;;;2.10;0.80;;;22.80;94.40;;;;;;7294097;32;20510;-57
2023/07/20 16:22:14;;;;;;;2.28;0.60;;;22.90;94.90;;;;;;7301647;32;20161;-57
2023/07/20 16:26:16;;;;;;;2.42;0.80;;;22.90;96.20;;;;;;7295494;32;20221;-57
2023/07/20 16:30:18;;;;;;;1.58;0.70;;;22.80;95.90;;;;;;7286327;32;20134;-57
2023/07/20 16:34:19;;;;;;;1.77;0.68;;;22.30;98.00;;;;;;7299469;32;20122;-57
2023/07/20 16:38:21;;;;;;;2.58;0.73;;;22.60;97.30;;;;;;7288563;32;20160;-57
2023/07/20 16:42:23;;;;;;;2.65;0.62;;;22.50;97.80;;;;;;7299599;32;20247;-58
2023/07/20 16:46:28;;;;;;;1.00;0.65;;;22.40;97.80;;;;;;7290582;32;20136;-57
2023/07/20 16:50:33;;;;;;;1.00;0.70;;;22.10;99.10;;;;;;7284578;32;20127;-57
2023/07/20 16:54:34;;;;;;;1.58;0.90;;;21.90;98.90;;;;;;7285161;32;20136;-57
2023/07/20 16:58:36;;;;;;;1.65;0.73;;;21.90;99.90;;;;;;7292586;32;20226;-57
2023/07/20 17:02:38;;;;;;;1.40;0.50;;;21.60;99.00;;;;;;7283688;32;20504;-57
2023/07/20 17:06:40;;;;;;;2.22;0.70;;;21.70;99.90;;;;;;7291301;32;20128;-58
2023/07/20 17:10:42;;;;;;;2.62;0.60;;;21.80;99.90;;;;;;7292555;32;20127;-57
2023/07/20 17:14:44;;;;;;;1.17;0.55;;;21.70;99.90;;;;;;7293656;32;20563;-58
2023/07/20 17:18:46;;;;;;;1.58;0.68;;;21.80;99.90;;;;;;7286224;32;20587;-58
2023/07/20 17:22:48;;;;;;;1.45;0.70;;;21.60;99.90;;;;;;7284138;32;20124;-57
2023/07/20 17:26:50;;;;;;;0.77;0.60;;;21.70;99.90;;;;;;7290819;32;20177;-57
2023/07/20 17:31:11;;;;;;;2.83;0.62;;;21.60;99.90;;;;;;7291457;32;20152;-57
2023/07/20 17:35:13;;;;;;;1.73;0.90;;;21.40;99.90;;;;;;7296990;32;20235;-56
2023/07/20 17:39:15;;;;;;;2.25;0.68;;;21.40;99.90;;;;;;7282152;32;20155;-57
2023/07/20 17:43:17;;;;;;;1.12;0.50;;;21.40;99.90;;;;;;7287876;32;20195;-57
2023/07/20 17:47:19;;;;;;;2.53;0.70;;;21.60;99.90;;;;;;7290508;32;20446;-56
2023/07/20 17:51:21;;;;;;;1.75;0.55;;;21.50;99.90;;;;;;7286197;32;20158;-56
2023/07/20 17:55:24;;;;;;;1.20;0.73;;;21.50;99.90;;;;;;7286669;32;20523;-56
2023/07/20 17:59:26;;;;;;;0.98;0.55;;;21.30;99.90;;;;;;7287641;32;20490;-57
2023/07/20 18:03:27;;;;;;;1.33;0.50;;;21.20;99.90;;;;;;7284447;32;20565;-56
2023/07/20 18:07:29;;;;;;;1.25;0.60;;;21.20;99.90;;;;;;7291721;32;20535;-56
2023/07/20 18:11:31;;;;;;;2.15;0.52;;;21.20;99.90;;;;;;7285161;32;20168;-56
2023/07/20 18:15:33;;;;;;;1.48;0.70;;;21.10;99.90;;;;;;7291315;32;20172;-56
2023/07/20 18:19:34;;;;;;;0.70;0.43;;;21.00;99.90;;;;;;7285401;32;21969;-56
2023/07/20 18:23:36;;;;;;;1.58;0.60;;;21.00;99.90;;;;;;7285171;32;20226;-56
2023/07/20 18:27:38;;;;;;;1.70;0.50;;;20.80;99.90;;;;;;7294924;32;20219;-56
2023/07/20 18:31:40;;;;;;;1.35;0.73;;;20.60;99.90;;;;;;7282366;32;20176;-57
2023/07/20 18:35:41;;;;;;;1.30;0.77;;;20.40;99.90;;;;;;7285797;32;20168;-56
2023/07/20 18:39:46;;;;;;;3.37;0.80;;;20.30;99.90;;;;;;7294272;32;20142;-56
2023/07/20 18:43:47;;;;;;;3.00;0.77;;;20.20;99.90;;;;;;7291608;32;20138;-57
2023/07/20 18:47:49;;;;;;;2.00;0.65;;;20.20;99.90;;;;;;7288655;32;20407;-56
2023/07/20 18:51:51;;;;;;;2.78;0.90;;;20.00;99.90;;;;;;7280022;32;20159;-56
2023/07/20 18:55:53;;;;;;;1.10;0.60;;;19.70;99.90;;;;;;7290146;32;20136;-56
2023/07/20 18:59:55;;;;;;;2.50;0.60;;;19.70;99.90;;;;;;7284390;32;20210;-56
2023/07/20 19:03:56;;;;;;;1.10;0.50;;;19.60;99.90;;;;;;7292204;32;20248;-56
2023/07/20 19:07:59;;;;;;;3.17;0.90;;;19.50;99.90;;;;;;7283634;32;20556;-57
2023/07/20 19:12:01;;;;;;;2.97;1.00;;;19.40;99.90;;;;;;7285122;32;20533;-58
2023/07/20 19:16:03;;;;;;;5.05;0.70;;;19.30;99.90;;;;;;7284600;32;20233;-57
2023/07/20 19:20:06;;;;;;;3.45;0.60;;;19.20;99.90;;;;;;7282252;32;20435;-57
2023/07/20 19:24:08;;;;;;;1.27;0.65;;;19.10;99.90;;;;;;7272480;32;20151;-56
2023/07/20 19:28:10;;;;;;;1.00;0.77;;;18.90;99.90;;;;;;7292218;32;20146;-57
2023/07/20 19:32:12;;;;;;;1.25;0.73;;;18.90;99.90;;;;;;7294531;32;20193;-56
2023/07/20 19:36:14;;;;;;;1.85;0.73;;;18.80;99.90;;;;;;7287404;32;20341;-56
2023/07/20 19:40:15;;;;;;;1.52;0.70;;;18.80;99.90;;;;;;7283607;32;20163;-56
2023/07/20 19:44:18;;;;;;;5.72;0.80;;;18.70;99.90;;;;;;7289882;32;20708;-57
2023/07/20 19:48:20;;;;;;;4.28;0.70;;;18.60;99.90;;;;;;7294253;32;20153;-56
2023/07/20 19:52:22;;;;;;;5.60;1.20;;;18.40;99.90;;;;;;7289071;32;20287;-56
2023/07/20 19:56:24;;;;;;;3.05;0.80;;;18.30;99.90;;;;;;7286822;32;20116;-56
2023/07/20 20:00:26;;;;;;;0.82;0.60;;;18.40;99.90;;;;;;7291252;32;20172;-55
2023/07/20 20:04:31;;;;;;;1.25;0.70;;;18.30;99.90;;;;;;7280280;32;20115;-55
2023/07/20 20:08:36;;;;;;;0.70;0.50;;;18.20;99.90;;;;;;7281113;32;20116;-54
2023/07/20 20:12:38;;;;;;;2.28;0.82;;;18.20;99.90;;;;;;7287319;32;20120;-54
2023/07/20 20:16:40;;;;;;;3.30;0.65;;;18.10;99.90;;;;;;7287366;32;20540;-54
2023/07/20 20:20:44;;;;;;;2.83;0.80;;;18.10;99.90;;;;;;7289157;32;20119;-54
2023/07/20 20:24:46;;;;;;;4.53;0.70;;;18.00;99.90;;;;;;7287301;32;20139;-55
2023/07/20 20:28:48;;;;;;;5.28;1.12;;;17.90;99.90;;;;;;7288880;32;20171;-55
2023/07/20 20:32:50;;;;;;;3.72;0.90;;;17.80;99.90;;;;;;7286102;32;20116;-54
2023/07/20 20:36:52;;;;;;;1.58;0.70;;;17.90;99.90;;;;;;7287928;32;20190;-55
2023/07/20 20:40:54;;;;;;;1.65;0.68;;;17.80;99.90;;;;;;7285122;32;20138;-54
2023/07/20 20:44:56;;;;;;;2.00;1.27;;;17.80;99.90;;;;;;7294976;32;20543;-54
2023/07/20 20:48:57;;;;;;;3.33;1.00;;;17.90;99.90;;;;;;7272903;32;20233;-54
2023/07/20 20:52:59;;;;;;;3.97;1.60;;;18.00;99.90;;;;;;7283850;32;20108;-55
2023/07/20 20:57:01;;;;;;;4.25;2.20;;;17.90;99.90;;;;;;7288048;32;20395;-55
2023/07/20 21:01:03;;;;;;;3.22;2.58;;;17.50;99.90;;;;;;7291597;32;20584;-55
2023/07/20 21:05:06;;;;;;;4.47;2.40;;;17.10;99.90;;;;;;7289879;32;20165;-55
2023/07/20 21:09:08;;;;;;;6.30;3.28;;;16.90;99.90;;;;;;7291811;32;20267;-55